createdAt,value
2022-10-21T00:04:19.247Z,977.9
2022-10-21T00:18:46.335Z,977.6
2022-10-21T00:33:26.328Z,977.3
2022-10-21T00:47:56.783Z,977.2
2022-10-21T01:02:30.522Z,977.3
2022-10-21T01:17:11.293Z,977.1
2022-10-21T01:31:47.671Z,976.9
2022-10-21T01:46:20.797Z,976.8
2022-10-21T02:00:54.356Z,976.8
2022-10-21T02:15:33.203Z,976.6
2022-10-21T02:30:10.563Z,976.3
2022-10-21T02:44:40.850Z,976.4
2022-10-21T02:59:15.294Z,976.3
2022-10-21T03:13:48.452Z,976.4
2022-10-21T03:28:21.680Z,976.3
2022-10-21T03:42:55.030Z,976.1
2022-10-21T03:57:27.852Z,976.2
2022-10-21T04:12:00.951Z,976.1
2022-10-21T04:26:33.608Z,976.2
2022-10-21T04:41:07.636Z,976.2
2022-10-21T04:55:40.621Z,976.1
2022-10-21T05:10:14.023Z,975.9
2022-10-21T05:24:47.414Z,975.7
2022-10-21T05:39:21.190Z,975.6
2022-10-21T05:53:57.580Z,975.7
2022-10-21T06:08:27.209Z,975.8
2022-10-21T06:23:00.996Z,975.5
2022-10-21T06:37:32.895Z,975.4
2022-10-21T06:52:07.255Z,975.6
2022-10-21T07:06:47.761Z,975.5
2022-10-21T07:21:23.787Z,975.8
2022-10-21T07:35:54.393Z,975.9
2022-10-21T07:50:28.128Z,976.1
2022-10-21T08:05:02.837Z,976.1
2022-10-21T08:19:37.048Z,976.1
2022-10-21T08:34:10.983Z,976.2
2022-10-21T08:48:44.935Z,976.2
2022-10-21T09:03:20.370Z,976.4
2022-10-21T09:17:56.150Z,976.5
2022-10-21T09:32:28.043Z,976.7
2022-10-21T09:47:01.771Z,976.7
2022-10-21T10:01:35.538Z,976.5
2022-10-21T10:16:08.265Z,976.4
2022-10-21T10:30:42.808Z,976.2
2022-10-21T10:45:16.285Z,975.5
2022-10-21T10:59:50.525Z,976.4
2022-10-21T11:14:25.556Z,977
2022-10-21T11:29:05.947Z,976.9
2022-10-21T11:43:36.921Z,976.6
2022-10-21T11:58:13.354Z,976.7
2022-10-21T12:12:48.868Z,976.6
2022-10-21T12:27:22.374Z,976.6
2022-10-21T12:41:56.679Z,976.6
2022-10-21T12:56:31.666Z,976.5
2022-10-21T13:11:04.815Z,976.6
2022-10-21T13:25:36.957Z,976.8
2022-10-21T13:40:15.675Z,976.6
2022-10-21T13:54:51.810Z,976.6
2022-10-21T14:09:22.313Z,976.3
2022-10-21T14:23:54.883Z,976.4
2022-10-21T14:38:26.018Z,976.4
2022-10-21T14:52:59.625Z,976.3
2022-10-21T15:07:33.955Z,976.5
2022-10-21T15:22:09.845Z,976.4
2022-10-21T15:36:42.728Z,976.3
2022-10-21T15:51:16.558Z,976.4
2022-10-21T16:05:52.137Z,976.4
2022-10-21T16:20:24.737Z,976.5
2022-10-21T16:35:03.482Z,976.4
2022-10-21T16:49:32.040Z,976.5
2022-10-21T17:04:10.811Z,976.7
2022-10-21T17:18:39.835Z,976.7
2022-10-21T17:33:14.695Z,977
2022-10-21T17:47:45.412Z,977.2
2022-10-21T18:02:18.598Z,977.3
2022-10-21T18:16:52.558Z,977.3
2022-10-21T18:31:25.986Z,977.3
2022-10-21T18:45:58.495Z,977.3
2022-10-21T19:00:31.988Z,977.4
2022-10-21T19:15:04.273Z,977.2
2022-10-21T19:29:38.612Z,977.1
2022-10-21T19:44:11.789Z,977.2
2022-10-21T19:58:45.200Z,977.6
2022-10-21T20:13:18.940Z,977.9
2022-10-21T20:27:58.379Z,977.9
2022-10-21T20:42:31.652Z,977.8
2022-10-21T20:57:01.902Z,977.7
2022-10-21T21:11:34.316Z,977.7
2022-10-21T21:26:08.113Z,977.8
2022-10-21T21:40:42.617Z,978
2022-10-21T21:55:16.079Z,977.8
2022-10-21T22:09:49.488Z,977.7
2022-10-21T22:24:23.665Z,977.5
2022-10-21T22:38:56.831Z,977.7
2022-10-21T22:53:30.785Z,977.9
2022-10-21T23:07:59.700Z,977.9
2022-10-21T23:22:32.880Z,977.8
2022-10-21T23:37:07.524Z,977.8
2022-10-21T23:51:41.498Z,978
